createdAt,value
2018-03-15T00:00:09.287Z,86.60
2018-03-15T00:02:37.712Z,86.90
2018-03-15T00:05:05.348Z,86.80
2018-03-15T00:07:32.977Z,86.50
2018-03-15T00:10:00.609Z,86.50
2018-03-15T00:12:28.232Z,86.00
2018-03-15T00:14:55.858Z,85.60
2018-03-15T00:17:23.485Z,85.80
2018-03-15T00:19:51.130Z,85.90
2018-03-15T00:22:18.934Z,86.50
2018-03-15T00:24:46.967Z,86.20
2018-03-15T00:27:14.637Z,85.90
2018-03-15T00:29:42.260Z,86.10
2018-03-15T00:32:09.897Z,85.60
2018-03-15T00:34:37.521Z,86.70
2018-03-15T00:37:05.180Z,86.50
2018-03-15T00:39:32.792Z,85.90
2018-03-15T00:42:00.436Z,86.00
2018-03-15T00:44:28.056Z,86.70
2018-03-15T00:46:55.677Z,86.10
2018-03-15T00:49:23.300Z,87.00
2018-03-15T00:51:50.948Z,86.10
2018-03-15T00:54:19.328Z,87.30
2018-03-15T00:56:47.716Z,87.70
2018-03-15T00:59:15.356Z,87.80
2018-03-15T01:01:42.984Z,87.20
2018-03-15T01:04:10.609Z,86.10
2018-03-15T01:06:38.993Z,87.80
2018-03-15T01:09:06.624Z,87.70
2018-03-15T01:11:34.248Z,87.80
2018-03-15T01:14:01.890Z,87.40
2018-03-15T01:16:30.276Z,87.00
2018-03-15T01:18:57.901Z,86.90
2018-03-15T01:21:25.541Z,86.70
2018-03-15T01:23:53.189Z,87.30
2018-03-15T01:26:21.148Z,87.10
2018-03-15T01:28:49.528Z,87.40
2018-03-15T01:31:17.168Z,87.30
2018-03-15T01:33:44.800Z,87.40
2018-03-15T01:36:12.451Z,87.40
2018-03-15T01:38:40.224Z,86.40
2018-03-15T01:41:07.848Z,87.00
2018-03-15T01:43:36.245Z,86.20
2018-03-15T01:46:03.873Z,86.20
2018-03-15T01:48:31.532Z,86.10
2018-03-15T01:50:59.164Z,85.50
2018-03-15T01:53:26.781Z,86.20
2018-03-15T01:55:54.405Z,85.90
2018-03-15T01:58:22.044Z,85.10
2018-03-15T02:00:50.488Z,86.10
2018-03-15T02:03:18.121Z,86.10
2018-03-15T02:05:45.743Z,87.10
2018-03-15T02:08:14.137Z,88.00
2018-03-15T02:10:41.765Z,88.10
2018-03-15T02:13:09.401Z,88.90
2018-03-15T02:15:37.024Z,88.10
2018-03-15T02:18:05.418Z,88.30
2018-03-15T02:20:33.811Z,88.10
2018-03-15T02:23:01.448Z,88.10
2018-03-15T02:25:29.073Z,88.10
2018-03-15T02:27:56.712Z,88.20
2018-03-15T02:30:24.332Z,87.40
2018-03-15T02:32:51.993Z,88.00
2018-03-15T02:35:19.733Z,87.70
2018-03-15T02:37:47.241Z,88.00
2018-03-15T02:40:14.868Z,88.10
2018-03-15T02:42:42.497Z,88.60
2018-03-15T02:45:10.900Z,88.20
2018-03-15T02:47:38.534Z,88.20
2018-03-15T02:50:06.165Z,87.60
2018-03-15T02:52:33.786Z,87.60
2018-03-15T02:55:02.464Z,87.40
2018-03-15T02:57:30.862Z,87.30
2018-03-15T02:59:58.497Z,87.20
2018-03-15T03:02:26.118Z,87.60
2018-03-15T03:04:53.752Z,87.20
2018-03-15T03:07:21.381Z,87.70
2018-03-15T03:09:49.002Z,88.30
2018-03-15T03:12:16.624Z,88.00
2018-03-15T03:14:44.245Z,88.10
2018-03-15T03:17:11.877Z,87.40
2018-03-15T03:19:40.283Z,87.50
2018-03-15T03:22:07.913Z,87.50
2018-03-15T03:24:35.538Z,88.20
2018-03-15T03:27:03.165Z,88.00
2018-03-15T03:29:30.801Z,88.20
2018-03-15T03:31:58.425Z,88.00
2018-03-15T03:34:26.053Z,87.60
2018-03-15T03:36:54.444Z,87.70
2018-03-15T03:39:22.073Z,87.60
2018-03-15T03:41:49.703Z,87.90
2018-03-15T03:44:17.329Z,87.20
2018-03-15T03:46:45.732Z,86.90
2018-03-15T03:49:14.116Z,86.50
2018-03-15T03:51:41.752Z,86.50
2018-03-15T03:54:09.373Z,86.00
2018-03-15T03:56:37.021Z,87.30
2018-03-15T03:59:04.632Z,87.50
2018-03-15T04:01:32.264Z,87.30
2018-03-15T04:03:59.901Z,87.90
2018-03-15T04:06:28.284Z,87.40
2018-03-15T04:08:56.677Z,87.10
2018-03-15T04:11:24.316Z,87.10
2018-03-15T04:13:51.925Z,86.50
2018-03-15T04:16:19.548Z,86.70
2018-03-15T04:18:47.225Z,86.30
2018-03-15T04:21:15.612Z,87.00
2018-03-15T04:23:44.008Z,87.70
2018-03-15T04:26:11.637Z,87.70
2018-03-15T04:28:39.260Z,87.60
2018-03-15T04:31:06.901Z,87.40
2018-03-15T04:33:34.532Z,87.70
2018-03-15T04:36:02.155Z,87.90
2018-03-15T04:38:29.788Z,88.20
2018-03-15T04:40:58.190Z,87.90
2018-03-15T04:43:25.824Z,87.90
2018-03-15T04:45:53.472Z,88.20
2018-03-15T04:48:22.618Z,88.00
2018-03-15T04:50:50.253Z,88.00
2018-03-15T04:53:17.872Z,88.50
2018-03-15T04:55:45.501Z,88.20
2018-03-15T04:58:13.888Z,86.90
2018-03-15T05:00:42.286Z,86.80
2018-03-15T05:03:10.669Z,87.30
2018-03-15T05:05:38.576Z,87.30
2018-03-15T05:08:06.201Z,87.10
2018-03-15T05:10:34.600Z,87.40
2018-03-15T05:13:02.224Z,87.40
2018-03-15T05:15:29.872Z,87.00
2018-03-15T05:17:57.502Z,87.70
2018-03-15T05:20:25.525Z,87.40
2018-03-15T05:22:53.177Z,87.60
2018-03-15T05:25:20.781Z,88.10
2018-03-15T05:27:49.192Z,87.70
2018-03-15T05:30:16.864Z,87.70
2018-03-15T05:32:44.547Z,87.80
2018-03-15T05:35:12.925Z,87.70
2018-03-15T05:37:40.552Z,87.60
2018-03-15T05:40:08.943Z,87.40
2018-03-15T05:42:36.564Z,87.40
2018-03-15T05:45:04.232Z,87.30
2018-03-15T05:47:31.848Z,87.20
2018-03-15T05:49:59.493Z,87.00
2018-03-15T05:52:27.896Z,87.60
2018-03-15T05:54:55.533Z,87.50
2018-03-15T05:57:23.191Z,87.30
2018-03-15T05:59:50.812Z,87.50
2018-03-15T06:02:18.468Z,87.50
2018-03-15T06:04:46.096Z,87.60
2018-03-15T06:07:13.801Z,88.50
2018-03-15T06:09:41.433Z,88.50
2018-03-15T06:12:09.828Z,87.50
2018-03-15T06:14:38.222Z,87.40
2018-03-15T06:17:06.601Z,86.90
2018-03-15T06:19:34.245Z,86.90
2018-03-15T06:22:01.905Z,87.30
2018-03-15T06:24:29.532Z,86.60
2018-03-15T06:26:57.156Z,86.20
2018-03-15T06:29:25.579Z,86.00
2018-03-15T06:31:53.933Z,85.80
2018-03-15T06:34:22.326Z,85.70
2018-03-15T06:36:49.953Z,85.70
2018-03-15T06:39:17.594Z,85.80
2018-03-15T06:41:45.216Z,85.60
2018-03-15T06:44:12.872Z,85.40
2018-03-15T06:46:40.474Z,85.10
2018-03-15T06:49:08.088Z,85.00
2018-03-15T06:51:35.729Z,84.50
2018-03-15T06:54:03.344Z,85.20
2018-03-15T06:56:30.976Z,84.30
2018-03-15T06:58:58.610Z,83.60
2018-03-15T07:01:26.224Z,83.50
2018-03-15T07:03:54.612Z,84.40
2018-03-15T07:06:23.039Z,83.70
2018-03-15T07:08:50.644Z,83.70
2018-03-15T07:11:18.312Z,83.70
2018-03-15T07:13:45.932Z,83.10
2018-03-15T07:16:13.569Z,83.10
2018-03-15T07:18:41.199Z,82.50
2018-03-15T07:21:08.813Z,82.00
2018-03-15T07:23:36.460Z,81.30
2018-03-15T07:26:04.860Z,81.90
2018-03-15T07:28:32.488Z,81.80
2018-03-15T07:31:00.881Z,79.70
2018-03-15T07:33:28.570Z,79.80
2018-03-15T07:35:56.205Z,80.10
2018-03-15T07:38:23.833Z,79.50
2018-03-15T07:40:51.459Z,80.10
2018-03-15T07:43:19.930Z,79.50
2018-03-15T07:45:47.529Z,79.40
2018-03-15T07:48:15.153Z,79.40
2018-03-15T07:50:42.783Z,79.20
2018-03-15T07:53:10.431Z,78.90
2018-03-15T07:55:38.059Z,78.20
2018-03-15T07:58:05.716Z,77.50
2018-03-15T08:00:33.376Z,77.60
2018-03-15T08:03:00.994Z,78.40
2018-03-15T08:05:28.629Z,78.20
2018-03-15T08:07:56.252Z,76.90
2018-03-15T08:10:23.872Z,77.70
2018-03-15T08:12:52.264Z,76.20
2018-03-15T08:15:20.656Z,76.40
2018-03-15T08:17:48.276Z,76.20
2018-03-15T08:20:16.183Z,75.40
2018-03-15T08:22:44.577Z,73.80
2018-03-15T08:25:13.084Z,73.80
2018-03-15T08:27:40.704Z,74.00
2018-03-15T08:30:09.216Z,74.00
2018-03-15T08:32:36.843Z,74.50
2018-03-15T08:35:05.976Z,74.20
2018-03-15T08:37:33.657Z,74.10
2018-03-15T08:40:01.281Z,72.90
2018-03-15T08:42:28.925Z,72.40
2018-03-15T08:44:56.552Z,72.80
2018-03-15T08:47:24.185Z,72.90
2018-03-15T08:49:52.593Z,70.70
2018-03-15T08:52:20.352Z,70.50
2018-03-15T08:54:48.344Z,71.60
2018-03-15T08:57:15.981Z,70.40
2018-03-15T08:59:43.613Z,68.80
2018-03-15T09:02:11.271Z,69.90
2018-03-15T09:04:39.412Z,69.10
2018-03-15T09:07:07.303Z,65.70
2018-03-15T09:09:35.644Z,65.60
2018-03-15T09:12:04.038Z,66.00
2018-03-15T09:14:31.662Z,65.90
2018-03-15T09:16:59.310Z,65.00
2018-03-15T09:19:26.920Z,63.70
2018-03-15T09:21:54.541Z,59.10
2018-03-15T09:24:22.164Z,56.50
2018-03-15T09:26:50.557Z,55.70
2018-03-15T09:29:18.993Z,55.90
2018-03-15T09:31:46.621Z,56.70
2018-03-15T09:34:14.264Z,58.00
2018-03-15T09:36:42.713Z,55.80
2018-03-15T09:39:10.345Z,55.70
2018-03-15T09:41:37.984Z,57.70
2018-03-15T09:44:06.376Z,54.90
2018-03-15T09:46:34.265Z,55.00
2018-03-15T09:49:01.891Z,52.90
2018-03-15T09:51:29.517Z,54.10
2018-03-15T09:53:57.138Z,51.50
2018-03-15T09:56:25.529Z,49.50
2018-03-15T09:58:53.158Z,49.60
2018-03-15T10:01:20.793Z,50.60
2018-03-15T10:03:48.441Z,50.70
2018-03-15T10:06:16.407Z,48.30
2018-03-15T10:08:44.042Z,47.80
2018-03-15T10:11:11.664Z,48.00
2018-03-15T10:13:39.300Z,46.30
2018-03-15T10:16:06.925Z,47.20
2018-03-15T10:18:34.549Z,47.20
2018-03-15T10:21:02.172Z,47.60
2018-03-15T10:23:29.805Z,46.90
2018-03-15T10:25:57.432Z,46.70
2018-03-15T10:28:25.057Z,45.50
2018-03-15T10:30:52.689Z,46.90
2018-03-15T10:33:20.310Z,45.00
2018-03-15T10:35:48.713Z,43.60
2018-03-15T10:38:16.857Z,43.70
2018-03-15T10:40:44.476Z,44.70
2018-03-15T10:43:12.099Z,45.20
2018-03-15T10:45:40.493Z,45.90
2018-03-15T10:48:08.883Z,46.00
2018-03-15T10:50:36.548Z,46.00
2018-03-15T10:53:05.096Z,43.80
2018-03-15T10:55:32.703Z,43.90
2018-03-15T10:58:00.324Z,44.10
2018-03-15T11:00:28.005Z,42.70
2018-03-15T11:02:55.625Z,43.20
2018-03-15T11:05:23.285Z,43.20
2018-03-15T11:07:51.664Z,44.30
2018-03-15T11:10:19.293Z,44.30
2018-03-15T11:12:46.977Z,39.80
2018-03-15T11:15:14.572Z,40.50
2018-03-15T11:17:42.203Z,39.20
2018-03-15T11:20:10.623Z,39.90
2018-03-15T11:22:38.252Z,39.80
2018-03-15T11:25:06.641Z,38.40
2018-03-15T11:27:34.537Z,38.30
2018-03-15T11:30:02.281Z,41.30
2018-03-15T11:32:29.841Z,37.90
2018-03-15T11:34:58.242Z,37.60
2018-03-15T11:37:25.921Z,37.60
2018-03-15T11:39:53.545Z,38.00
2018-03-15T11:42:21.221Z,39.10
2018-03-15T11:44:49.615Z,37.70
2018-03-15T11:47:18.000Z,38.20
2018-03-15T11:49:46.388Z,36.10
2018-03-15T11:52:14.017Z,36.00
2018-03-15T11:54:42.028Z,35.10
2018-03-15T11:57:10.011Z,35.50
2018-03-15T11:59:37.637Z,33.30
2018-03-15T12:02:05.267Z,33.90
2018-03-15T12:04:32.898Z,34.90
2018-03-15T12:07:00.551Z,34.80
2018-03-15T12:09:28.440Z,33.60
2018-03-15T12:11:56.824Z,34.30
2018-03-15T12:14:25.480Z,33.50
2018-03-15T12:16:54.191Z,36.60
2018-03-15T12:19:22.681Z,34.10
2018-03-15T12:21:50.659Z,34.10
2018-03-15T12:24:18.525Z,35.40
2018-03-15T12:26:46.935Z,32.10
2018-03-15T12:29:14.891Z,32.20
2018-03-15T12:31:42.511Z,33.40
2018-03-15T12:34:10.149Z,35.00
2018-03-15T12:36:37.759Z,34.70
2018-03-15T12:39:06.148Z,35.50
2018-03-15T12:41:34.547Z,33.40
2018-03-15T12:44:02.940Z,32.30
2018-03-15T12:46:30.566Z,32.20
2018-03-15T12:48:58.181Z,36.50
2018-03-15T12:51:25.800Z,35.00
2018-03-15T12:53:53.444Z,34.10
2018-03-15T12:56:21.149Z,34.20
2018-03-15T12:58:48.794Z,36.00
2018-03-15T13:01:16.412Z,33.70
2018-03-15T13:03:44.032Z,37.60
2018-03-15T13:06:11.652Z,35.10
2018-03-15T13:08:39.281Z,34.40
2018-03-15T13:11:07.659Z,35.40
2018-03-15T13:13:36.048Z,35.80
2018-03-15T13:16:04.440Z,36.20
2018-03-15T13:18:32.067Z,36.00
2018-03-15T13:20:59.692Z,34.50
2018-03-15T13:23:27.316Z,34.60
2018-03-15T13:25:55.700Z,34.80
2018-03-15T13:28:23.375Z,34.00
2018-03-15T13:30:50.944Z,34.40
2018-03-15T13:33:19.336Z,33.70
2018-03-15T13:35:47.744Z,36.40
2018-03-15T13:38:15.365Z,36.40
2018-03-15T13:40:42.998Z,35.80
2018-03-15T13:43:10.653Z,34.00
2018-03-15T13:45:38.225Z,32.80
2018-03-15T13:48:05.851Z,33.90
2018-03-15T13:50:34.435Z,35.80
2018-03-15T13:53:02.876Z,33.80
2018-03-15T13:55:30.502Z,33.60
2018-03-15T13:57:58.154Z,36.10
2018-03-15T14:00:26.076Z,35.50
2018-03-15T14:02:53.728Z,35.40
2018-03-15T14:05:21.348Z,36.20
2018-03-15T14:07:49.728Z,37.60
2018-03-15T14:10:18.113Z,36.20
2018-03-15T14:12:46.514Z,37.00
2018-03-15T14:15:14.893Z,37.20
2018-03-15T14:17:42.609Z,36.60
2018-03-15T14:20:10.196Z,35.00
2018-03-15T14:22:37.816Z,38.70
2018-03-15T14:25:05.436Z,37.60
2018-03-15T14:27:33.076Z,36.00
2018-03-15T14:30:00.677Z,37.40
2018-03-15T14:32:29.060Z,40.10
2018-03-15T14:34:57.517Z,40.20
2018-03-15T14:37:25.489Z,40.20
2018-03-15T14:39:53.108Z,38.40
2018-03-15T14:42:20.741Z,37.80
2018-03-15T14:44:49.069Z,39.50
2018-03-15T14:47:16.930Z,37.40
2018-03-15T14:49:44.562Z,38.50
2018-03-15T14:52:12.169Z,38.20
2018-03-15T14:54:39.788Z,38.20
2018-03-15T14:57:07.412Z,41.10
2018-03-15T14:59:35.044Z,39.00
2018-03-15T15:02:02.726Z,42.60
2018-03-15T15:04:31.097Z,42.10
2018-03-15T15:06:58.745Z,42.10
2018-03-15T15:09:27.147Z,44.40
2018-03-15T15:11:54.772Z,44.20
2018-03-15T15:14:22.398Z,43.90
2018-03-15T15:16:50.021Z,42.20
2018-03-15T15:19:17.649Z,43.20
2018-03-15T15:21:45.272Z,44.60
2018-03-15T15:24:12.898Z,44.20
2018-03-15T15:26:40.516Z,45.10
2018-03-15T15:29:08.137Z,44.90
2018-03-15T15:31:35.752Z,44.20
2018-03-15T15:34:03.405Z,44.00
2018-03-15T15:36:31.033Z,44.70
2018-03-15T15:38:58.684Z,45.10
2018-03-15T15:41:26.308Z,45.10
2018-03-15T15:43:53.953Z,44.70
2018-03-15T15:46:22.341Z,46.10
2018-03-15T15:48:50.728Z,45.10
2018-03-15T15:51:19.118Z,47.20
2018-03-15T15:53:46.740Z,47.10
2018-03-15T15:59:01.457Z,46.30
2018-03-15T16:01:29.085Z,46.30
2018-03-15T16:03:56.712Z,46.80
2018-03-15T16:06:24.340Z,46.10
2018-03-15T16:08:52.782Z,48.60
2018-03-15T16:11:20.389Z,48.50
2018-03-15T16:13:48.009Z,46.40
2018-03-15T16:16:15.638Z,47.40
2018-03-15T16:18:43.258Z,48.00
2018-03-15T16:21:10.884Z,46.90
2018-03-15T16:23:38.517Z,48.20
2018-03-15T16:26:06.915Z,47.30
2018-03-15T16:28:35.297Z,48.10
2018-03-15T16:31:02.929Z,48.10
2018-03-15T16:33:30.550Z,49.30
2018-03-15T16:35:58.205Z,48.00
2018-03-15T16:38:26.564Z,48.40
2018-03-15T16:40:54.961Z,48.40
2018-03-15T16:43:22.588Z,48.40
2018-03-15T16:45:50.220Z,48.60
2018-03-15T16:48:17.935Z,49.20
2018-03-15T16:50:45.697Z,48.10
2018-03-15T16:53:13.363Z,48.60
2018-03-15T16:55:41.010Z,50.00
2018-03-15T16:58:08.692Z,49.40
2018-03-15T17:00:36.338Z,49.10
2018-03-15T17:03:03.993Z,50.90
2018-03-15T17:05:31.634Z,51.30
2018-03-15T17:07:59.268Z,51.00
2018-03-15T17:10:28.401Z,51.40
2018-03-15T17:12:56.058Z,51.40
2018-03-15T17:15:24.445Z,51.40
2018-03-15T17:17:52.881Z,54.30
2018-03-15T17:20:20.485Z,53.50
2018-03-15T17:22:48.873Z,51.80
2018-03-15T17:25:16.974Z,51.80
2018-03-15T17:27:44.598Z,53.70
2018-03-15T17:30:12.239Z,54.20
2018-03-15T17:32:39.842Z,55.80
2018-03-15T17:35:08.252Z,54.60
2018-03-15T17:37:36.632Z,55.70
2018-03-15T17:40:04.257Z,55.70
2018-03-15T17:42:31.892Z,55.70
2018-03-15T17:44:59.512Z,55.90
2018-03-15T17:47:27.900Z,57.70
2018-03-15T17:49:55.529Z,57.70
2018-03-15T17:52:23.152Z,58.60
2018-03-15T17:54:50.772Z,58.70
2018-03-15T17:57:18.405Z,60.10
2018-03-15T17:59:46.033Z,60.50
2018-03-15T18:02:13.702Z,61.30
2018-03-15T18:04:41.288Z,61.30
2018-03-15T18:07:08.911Z,61.20
2018-03-15T18:09:36.531Z,62.70
2018-03-15T18:12:04.169Z,62.00
2018-03-15T18:14:31.797Z,62.60
2018-03-15T18:16:59.418Z,63.00
2018-03-15T18:19:27.047Z,62.10
2018-03-15T18:21:55.433Z,62.50
2018-03-15T18:24:23.264Z,62.60
2018-03-15T18:26:50.905Z,62.70
2018-03-15T18:29:19.444Z,63.30
2018-03-15T18:31:47.846Z,63.90
2018-03-15T18:34:15.465Z,63.90
2018-03-15T18:36:43.095Z,62.70
2018-03-15T18:39:10.790Z,63.40
2018-03-15T18:41:38.541Z,64.10
2018-03-15T18:44:06.161Z,64.50
2018-03-15T18:46:34.561Z,63.20
2018-03-15T18:49:02.185Z,63.20
2018-03-15T18:51:30.160Z,63.90
2018-03-15T18:53:57.797Z,64.80
2018-03-15T18:56:25.409Z,64.20
2018-03-15T18:58:53.086Z,64.70
2018-03-15T19:01:20.703Z,64.60
2018-03-15T19:03:49.093Z,65.60
2018-03-15T19:06:16.786Z,65.60
2018-03-15T19:08:44.390Z,64.50
2018-03-15T19:11:13.989Z,66.20
2018-03-15T19:13:41.617Z,66.20
2018-03-15T19:16:09.253Z,66.20
2018-03-15T19:18:36.885Z,66.60
2018-03-15T19:21:05.275Z,66.10
2018-03-15T19:23:33.685Z,65.50
2018-03-15T19:26:01.309Z,65.50
2018-03-15T19:28:29.738Z,68.20
2018-03-15T19:30:57.391Z,67.60
2018-03-15T19:33:25.009Z,66.70
2018-03-15T19:35:53.409Z,66.80
2018-03-15T19:38:21.050Z,66.80
2018-03-15T19:40:48.693Z,67.60
2018-03-15T19:43:16.322Z,67.20
2018-03-15T19:45:58.930Z,66.80
2018-03-15T19:48:26.569Z,66.80
2018-03-15T19:50:54.216Z,67.80
2018-03-15T19:53:21.841Z,67.30
2018-03-15T19:55:49.477Z,67.70
2018-03-15T19:58:17.126Z,68.80
2018-03-15T20:00:45.427Z,67.50
2018-03-15T20:03:13.041Z,68.80
2018-03-15T20:05:40.681Z,68.30
2018-03-15T20:08:08.324Z,68.40
2018-03-15T20:10:35.946Z,70.20
2018-03-15T20:13:03.568Z,69.60
2018-03-15T20:15:31.971Z,69.40
2018-03-15T20:17:59.592Z,69.30
2018-03-15T20:20:28.191Z,69.40
2018-03-15T20:22:56.356Z,69.40
2018-03-15T20:25:23.976Z,70.00
2018-03-15T20:27:51.642Z,70.80
2018-03-15T20:30:19.268Z,69.30
2018-03-15T20:32:46.941Z,70.70
2018-03-15T20:35:14.536Z,70.00
2018-03-15T20:37:42.160Z,70.30
2018-03-15T20:40:09.815Z,69.70
2018-03-15T20:42:37.436Z,70.00
2018-03-15T20:45:05.173Z,70.30
2018-03-15T20:47:33.560Z,70.50
2018-03-15T20:50:01.215Z,70.50
2018-03-15T20:52:29.625Z,70.90
2018-03-15T20:54:58.002Z,71.70
2018-03-15T20:57:25.773Z,71.60
2018-03-15T20:59:53.556Z,71.80
2018-03-15T21:02:21.173Z,72.20
2018-03-15T21:04:48.801Z,73.00
2018-03-15T21:07:16.423Z,72.00
2018-03-15T21:09:44.824Z,74.30
2018-03-15T21:12:12.457Z,74.10
2018-03-15T21:14:40.076Z,74.30
2018-03-15T21:17:07.699Z,77.30
2018-03-15T21:19:35.316Z,78.60
2018-03-15T21:22:02.954Z,79.20
2018-03-15T21:24:30.581Z,80.00
2018-03-15T21:26:58.320Z,77.40
2018-03-15T21:29:25.862Z,81.90
2018-03-15T21:31:53.486Z,82.00
2018-03-15T21:34:21.105Z,80.40
2018-03-15T21:36:48.788Z,82.90
2018-03-15T21:39:16.411Z,81.90
2018-03-15T21:41:44.041Z,83.60
2018-03-15T21:44:11.665Z,84.80
2018-03-15T21:46:39.301Z,83.90
2018-03-15T21:49:07.688Z,85.50
2018-03-15T21:51:36.110Z,87.20
2018-03-15T21:54:03.763Z,87.20
2018-03-15T21:56:31.426Z,88.10
2018-03-15T21:58:59.017Z,88.90
2018-03-15T22:01:26.647Z,88.90
2018-03-15T22:03:55.253Z,90.20
2018-03-15T22:06:22.861Z,90.20
2018-03-15T22:08:50.529Z,90.40
2018-03-15T22:11:18.147Z,90.50
2018-03-15T22:13:45.768Z,90.00
2018-03-15T22:16:13.438Z,90.10
2018-03-15T22:18:41.025Z,90.10
2018-03-15T22:21:08.657Z,90.50
2018-03-15T22:23:36.284Z,90.60
2018-03-15T22:26:03.954Z,90.80
2018-03-15T22:28:31.565Z,90.50
2018-03-15T22:30:59.286Z,90.40
2018-03-15T22:33:26.914Z,90.40
2018-03-15T22:35:55.310Z,90.80
2018-03-15T22:38:22.951Z,90.40
2018-03-15T22:40:50.577Z,90.90
2018-03-15T22:43:18.201Z,90.70
2018-03-15T22:45:46.584Z,90.70
2018-03-15T22:48:14.974Z,90.90
2018-03-15T22:50:42.601Z,90.90
2018-03-15T22:53:10.233Z,90.70
2018-03-15T22:55:37.892Z,90.90
2018-03-15T22:58:06.277Z,90.80
2018-03-15T23:00:33.920Z,90.80
2018-03-15T23:03:01.544Z,90.80
2018-03-15T23:05:29.173Z,90.70
2018-03-15T23:07:56.801Z,90.70
2018-03-15T23:10:24.428Z,90.40
2018-03-15T23:12:52.058Z,90.60
2018-03-15T23:15:20.676Z,90.60
2018-03-15T23:17:48.302Z,90.60
2018-03-15T23:20:15.929Z,90.40
2018-03-15T23:22:43.597Z,90.60
2018-03-15T23:25:11.217Z,90.90
2018-03-15T23:27:38.885Z,91.00
2018-03-15T23:30:06.508Z,91.20
2018-03-15T23:32:34.901Z,91.10
2018-03-15T23:35:03.292Z,91.10
2018-03-15T23:37:31.684Z,90.80
2018-03-15T23:39:59.321Z,90.80
2018-03-15T23:42:26.970Z,90.70
2018-03-15T23:44:54.596Z,90.80
2018-03-15T23:47:22.228Z,90.80
2018-03-15T23:49:49.890Z,90.60
2018-03-15T23:52:17.489Z,91.20
2018-03-15T23:54:45.129Z,91.40
2018-03-15T23:57:12.753Z,91.50
2018-03-15T23:59:40.373Z,91.20
